sensor_id;sensor_type;location;lat;lon;timestamp;P1;durP1;ratioP1;P2;durP2;ratioP2
32874;SDS011;40468;42.128;24.750;2022-09-16T00:00:03;15.38;;;3.25;;
32874;SDS011;40468;42.128;24.750;2022-09-16T00:01:36;14.43;;;2.97;;
32874;SDS011;40468;42.128;24.750;2022-09-16T00:03:07;10.25;;;2.53;;
32874;SDS011;40468;42.128;24.750;2022-09-16T00:04:39;7.60;;;2.65;;
32874;SDS011;40468;42.128;24.750;2022-09-16T00:06:15;14.02;;;3.60;;
32874;SDS011;40468;42.128;24.750;2022-09-16T00:07:48;13.90;;;3.13;;
32874;SDS011;40468;42.128;24.750;2022-09-16T00:09:20;13.45;;;2.97;;
32874;SDS011;40468;42.128;24.750;2022-09-16T00:10:52;7.63;;;2.72;;
32874;SDS011;40468;42.128;24.750;2022-09-16T00:12:23;14.68;;;2.55;;
32874;SDS011;40468;42.128;24.750;2022-09-16T00:13:56;12.40;;;2.35;;
32874;SDS011;40468;42.128;24.750;2022-09-16T00:15:28;10.65;;;2.75;;
32874;SDS011;40468;42.128;24.750;2022-09-16T00:17:00;13.98;;;2.95;;
32874;SDS011;40468;42.128;24.750;2022-09-16T00:18:32;17.85;;;5.05;;
32874;SDS011;40468;42.128;24.750;2022-09-16T00:20:04;14.15;;;3.33;;
32874;SDS011;40468;42.128;24.750;2022-09-16T00:21:36;12.07;;;3.08;;
32874;SDS011;40468;42.128;24.750;2022-09-16T00:23:08;9.50;;;3.00;;
32874;SDS011;40468;42.128;24.750;2022-09-16T00:24:39;12.23;;;2.97;;
32874;SDS011;40468;42.128;24.750;2022-09-16T00:26:11;13.50;;;3.05;;
32874;SDS011;40468;42.128;24.750;2022-09-16T00:27:42;8.57;;;2.85;;
32874;SDS011;40468;42.128;24.750;2022-09-16T00:29:15;10.40;;;2.45;;
32874;SDS011;40468;42.128;24.750;2022-09-16T00:30:47;14.45;;;3.30;;
32874;SDS011;40468;42.128;24.750;2022-09-16T00:32:19;11.83;;;3.03;;
32874;SDS011;40468;42.128;24.750;2022-09-16T00:33:50;13.90;;;2.80;;
32874;SDS011;40468;42.128;24.750;2022-09-16T00:35:22;10.52;;;2.72;;
32874;SDS011;40468;42.128;24.750;2022-09-16T00:36:53;13.90;;;2.90;;
32874;SDS011;40468;42.128;24.750;2022-09-16T00:38:25;15.00;;;3.70;;
32874;SDS011;40468;42.128;24.750;2022-09-16T00:39:55;13.90;;;2.92;;
32874;SDS011;40468;42.128;24.750;2022-09-16T00:41:28;6.95;;;2.72;;
32874;SDS011;40468;42.128;24.750;2022-09-16T00:43:02;14.32;;;2.90;;
32874;SDS011;40468;42.128;24.750;2022-09-16T00:44:55;18.33;;;3.08;;
32874;SDS011;40468;42.128;24.750;2022-09-16T00:46:29;11.95;;;2.83;;
32874;SDS011;40468;42.128;24.750;2022-09-16T00:48:06;13.55;;;2.92;;
32874;SDS011;40468;42.128;24.750;2022-09-16T00:49:43;12.65;;;2.83;;
32874;SDS011;40468;42.128;24.750;2022-09-16T00:51:15;16.40;;;3.10;;
32874;SDS011;40468;42.128;24.750;2022-09-16T00:52:50;15.88;;;3.20;;
32874;SDS011;40468;42.128;24.750;2022-09-16T00:54:24;13.60;;;2.95;;
32874;SDS011;40468;42.128;24.750;2022-09-16T00:55:56;9.45;;;2.80;;
32874;SDS011;40468;42.128;24.750;2022-09-16T00:57:31;11.93;;;2.75;;
32874;SDS011;40468;42.128;24.750;2022-09-16T00:59:03;11.23;;;2.78;;
32874;SDS011;40468;42.128;24.750;2022-09-16T01:00:39;12.27;;;3.03;;
32874;SDS011;40468;42.128;24.750;2022-09-16T01:02:12;16.45;;;3.55;;
32874;SDS011;40468;42.128;24.750;2022-09-16T01:03:48;10.13;;;3.13;;
32874;SDS011;40468;42.128;24.750;2022-09-16T01:05:23;14.27;;;3.17;;
32874;SDS011;40468;42.128;24.750;2022-09-16T01:06:56;9.00;;;3.13;;
32874;SDS011;40468;42.128;24.750;2022-09-16T01:08:28;10.25;;;3.13;;
32874;SDS011;40468;42.128;24.750;2022-09-16T01:10:00;11.50;;;2.67;;
32874;SDS011;40468;42.128;24.750;2022-09-16T01:11:32;10.88;;;3.45;;
32874;SDS011;40468;42.128;24.750;2022-09-16T01:13:05;14.98;;;3.08;;
32874;SDS011;40468;42.128;24.750;2022-09-16T01:14:42;12.43;;;3.28;;
32874;SDS011;40468;42.128;24.750;2022-09-16T01:16:27;11.95;;;2.65;;
32874;SDS011;40468;42.128;24.750;2022-09-16T01:18:07;11.43;;;3.00;;
32874;SDS011;40468;42.128;24.750;2022-09-16T01:19:54;16.10;;;3.05;;
32874;SDS011;40468;42.128;24.750;2022-09-16T01:21:40;12.10;;;3.40;;
32874;SDS011;40468;42.128;24.750;2022-09-16T01:23:22;13.70;;;3.72;;
32874;SDS011;40468;42.128;24.750;2022-09-16T01:25:18;13.63;;;3.40;;
32874;SDS011;40468;42.128;24.750;2022-09-16T01:27:17;13.80;;;4.22;;
32874;SDS011;40468;42.128;24.750;2022-09-16T01:29:04;9.23;;;2.85;;
32874;SDS011;40468;42.128;24.750;2022-09-16T01:30:59;15.55;;;5.05;;
32874;SDS011;40468;42.128;24.750;2022-09-16T01:32:39;15.25;;;3.28;;
32874;SDS011;40468;42.128;24.750;2022-09-16T01:34:21;13.60;;;4.30;;
32874;SDS011;40468;42.128;24.750;2022-09-16T01:36:00;18.75;;;3.50;;
32874;SDS011;40468;42.128;24.750;2022-09-16T01:37:40;17.40;;;4.63;;
32874;SDS011;40468;42.128;24.750;2022-09-16T01:39:20;26.30;;;4.25;;
32874;SDS011;40468;42.128;24.750;2022-09-16T01:41:00;16.55;;;4.05;;
32874;SDS011;40468;42.128;24.750;2022-09-16T01:42:40;15.55;;;3.70;;
32874;SDS011;40468;42.128;24.750;2022-09-16T01:46:01;8.25;;;2.85;;
32874;SDS011;40468;42.128;24.750;2022-09-16T01:47:41;13.20;;;3.58;;
32874;SDS011;40468;42.128;24.750;2022-09-16T01:49:21;9.82;;;3.05;;
32874;SDS011;40468;42.128;24.750;2022-09-16T01:52:44;12.45;;;2.90;;
32874;SDS011;40468;42.128;24.750;2022-09-16T01:54:20;17.23;;;3.58;;
32874;SDS011;40468;42.128;24.750;2022-09-16T01:56:01;14.93;;;3.72;;
32874;SDS011;40468;42.128;24.750;2022-09-16T01:57:38;13.93;;;3.05;;
32874;SDS011;40468;42.128;24.750;2022-09-16T01:59:16;16.42;;;3.40;;
32874;SDS011;40468;42.128;24.750;2022-09-16T02:00:52;12.98;;;3.25;;
32874;SDS011;40468;42.128;24.750;2022-09-16T02:02:32;12.15;;;3.90;;
32874;SDS011;40468;42.128;24.750;2022-09-16T02:04:10;12.07;;;3.80;;
32874;SDS011;40468;42.128;24.750;2022-09-16T02:05:49;12.43;;;3.28;;
32874;SDS011;40468;42.128;24.750;2022-09-16T02:07:24;11.05;;;3.05;;
32874;SDS011;40468;42.128;24.750;2022-09-16T02:08:59;9.25;;;3.33;;
32874;SDS011;40468;42.128;24.750;2022-09-16T02:10:36;8.93;;;2.83;;
32874;SDS011;40468;42.128;24.750;2022-09-16T02:12:13;10.55;;;2.70;;
32874;SDS011;40468;42.128;24.750;2022-09-16T02:13:50;15.10;;;3.50;;
32874;SDS011;40468;42.128;24.750;2022-09-16T02:15:25;9.55;;;2.78;;
32874;SDS011;40468;42.128;24.750;2022-09-16T02:17:00;19.52;;;4.22;;
32874;SDS011;40468;42.128;24.750;2022-09-16T02:18:37;19.27;;;3.28;;
32874;SDS011;40468;42.128;24.750;2022-09-16T02:20:13;12.68;;;3.72;;
32874;SDS011;40468;42.128;24.750;2022-09-16T02:21:49;30.33;;;4.05;;
32874;SDS011;40468;42.128;24.750;2022-09-16T02:23:24;13.48;;;3.53;;
32874;SDS011;40468;42.128;24.750;2022-09-16T02:24:58;13.48;;;3.35;;
32874;SDS011;40468;42.128;24.750;2022-09-16T02:26:33;12.18;;;2.78;;
32874;SDS011;40468;42.128;24.750;2022-09-16T02:28:11;11.57;;;3.67;;
32874;SDS011;40468;42.128;24.750;2022-09-16T02:29:49;15.15;;;2.85;;
32874;SDS011;40468;42.128;24.750;2022-09-16T02:31:24;14.35;;;2.67;;
32874;SDS011;40468;42.128;24.750;2022-09-16T02:33:01;10.52;;;3.33;;
32874;SDS011;40468;42.128;24.750;2022-09-16T02:34:39;9.75;;;3.10;;
32874;SDS011;40468;42.128;24.750;2022-09-16T02:36:16;10.65;;;3.13;;
32874;SDS011;40468;42.128;24.750;2022-09-16T02:37:54;14.13;;;2.67;;
32874;SDS011;40468;42.128;24.750;2022-09-16T02:39:29;14.90;;;3.53;;
32874;SDS011;40468;42.128;24.750;2022-09-16T02:41:06;11.52;;;2.90;;
32874;SDS011;40468;42.128;24.750;2022-09-16T02:42:43;12.30;;;2.80;;
32874;SDS011;40468;42.128;24.750;2022-09-16T02:44:15;12.18;;;3.00;;
32874;SDS011;40468;42.128;24.750;2022-09-16T02:45:48;15.82;;;3.10;;
32874;SDS011;40468;42.128;24.750;2022-09-16T02:47:27;11.52;;;2.90;;
32874;SDS011;40468;42.128;24.750;2022-09-16T02:49:03;10.63;;;2.63;;
32874;SDS011;40468;42.128;24.750;2022-09-16T02:50:47;15.25;;;3.03;;
32874;SDS011;40468;42.128;24.750;2022-09-16T02:52:27;13.98;;;3.05;;
32874;SDS011;40468;42.128;24.750;2022-09-16T02:54:08;18.35;;;3.67;;
32874;SDS011;40468;42.128;24.750;2022-09-16T02:55:50;13.25;;;2.83;;
32874;SDS011;40468;42.128;24.750;2022-09-16T02:57:26;13.50;;;3.22;;
32874;SDS011;40468;42.128;24.750;2022-09-16T02:58:58;12.73;;;3.50;;
32874;SDS011;40468;42.128;24.750;2022-09-16T03:00:35;13.80;;;3.25;;
32874;SDS011;40468;42.128;24.750;2022-09-16T03:02:11;16.77;;;3.38;;
32874;SDS011;40468;42.128;24.750;2022-09-16T03:03:43;20.17;;;3.78;;
32874;SDS011;40468;42.128;24.750;2022-09-16T03:05:15;15.63;;;3.90;;
32874;SDS011;40468;42.128;24.750;2022-09-16T03:06:47;11.85;;;3.03;;
32874;SDS011;40468;42.128;24.750;2022-09-16T03:08:19;11.75;;;3.45;;
32874;SDS011;40468;42.128;24.750;2022-09-16T03:09:50;7.25;;;2.33;;
32874;SDS011;40468;42.128;24.750;2022-09-16T03:11:24;15.73;;;3.42;;
32874;SDS011;40468;42.128;24.750;2022-09-16T03:13:07;16.15;;;3.40;;
32874;SDS011;40468;42.128;24.750;2022-09-16T03:15:01;8.40;;;3.08;;
32874;SDS011;40468;42.128;24.750;2022-09-16T03:16:45;15.25;;;3.05;;
32874;SDS011;40468;42.128;24.750;2022-09-16T03:18:39;9.48;;;3.25;;
32874;SDS011;40468;42.128;24.750;2022-09-16T03:20:21;9.73;;;3.17;;
32874;SDS011;40468;42.128;24.750;2022-09-16T03:22:08;8.57;;;3.35;;
32874;SDS011;40468;42.128;24.750;2022-09-16T03:25:30;10.48;;;3.80;;
32874;SDS011;40468;42.128;24.750;2022-09-16T03:27:09;8.90;;;3.30;;
32874;SDS011;40468;42.128;24.750;2022-09-16T03:28:44;15.52;;;3.25;;
32874;SDS011;40468;42.128;24.750;2022-09-16T03:30:24;12.57;;;3.40;;
32874;SDS011;40468;42.128;24.750;2022-09-16T03:31:57;8.60;;;3.17;;
32874;SDS011;40468;42.128;24.750;2022-09-16T03:33:38;17.50;;;3.70;;
32874;SDS011;40468;42.128;24.750;2022-09-16T03:35:18;17.50;;;3.92;;
32874;SDS011;40468;42.128;24.750;2022-09-16T03:36:57;13.68;;;3.55;;
32874;SDS011;40468;42.128;24.750;2022-09-16T03:38:34;11.98;;;3.53;;
32874;SDS011;40468;42.128;24.750;2022-09-16T03:40:07;14.32;;;3.90;;
32874;SDS011;40468;42.128;24.750;2022-09-16T03:41:42;18.88;;;3.65;;
32874;SDS011;40468;42.128;24.750;2022-09-16T03:44:47;14.88;;;4.28;;
32874;SDS011;40468;42.128;24.750;2022-09-16T03:46:19;11.55;;;3.78;;
32874;SDS011;40468;42.128;24.750;2022-09-16T03:47:51;18.60;;;4.03;;
32874;SDS011;40468;42.128;24.750;2022-09-16T03:49:23;18.27;;;4.68;;
32874;SDS011;40468;42.128;24.750;2022-09-16T03:50:54;22.55;;;4.88;;
32874;SDS011;40468;42.128;24.750;2022-09-16T03:52:26;15.52;;;4.57;;
32874;SDS011;40468;42.128;24.750;2022-09-16T03:53:58;16.55;;;3.95;;
32874;SDS011;40468;42.128;24.750;2022-09-16T03:55:30;24.65;;;3.85;;
32874;SDS011;40468;42.128;24.750;2022-09-16T03:57:02;20.10;;;4.15;;
32874;SDS011;40468;42.128;24.750;2022-09-16T03:58:35;24.23;;;6.03;;
32874;SDS011;40468;42.128;24.750;2022-09-16T04:00:06;18.08;;;4.65;;
32874;SDS011;40468;42.128;24.750;2022-09-16T04:01:39;15.43;;;4.97;;
32874;SDS011;40468;42.128;24.750;2022-09-16T04:03:10;23.10;;;5.18;;
32874;SDS011;40468;42.128;24.750;2022-09-16T04:04:42;23.63;;;4.93;;
32874;SDS011;40468;42.128;24.750;2022-09-16T04:06:14;21.38;;;5.03;;
32874;SDS011;40468;42.128;24.750;2022-09-16T04:07:47;30.30;;;5.40;;
32874;SDS011;40468;42.128;24.750;2022-09-16T04:09:20;33.72;;;6.25;;
32874;SDS011;40468;42.128;24.750;2022-09-16T04:12:24;25.33;;;5.57;;
32874;SDS011;40468;42.128;24.750;2022-09-16T04:13:56;19.52;;;5.03;;
32874;SDS011;40468;42.128;24.750;2022-09-16T04:15:29;16.05;;;4.40;;
32874;SDS011;40468;42.128;24.750;2022-09-16T04:17:01;19.65;;;5.38;;
32874;SDS011;40468;42.128;24.750;2022-09-16T04:18:33;14.13;;;4.33;;
32874;SDS011;40468;42.128;24.750;2022-09-16T04:20:04;20.60;;;4.68;;
32874;SDS011;40468;42.128;24.750;2022-09-16T04:21:37;26.35;;;5.65;;
32874;SDS011;40468;42.128;24.750;2022-09-16T04:23:10;24.67;;;7.22;;
32874;SDS011;40468;42.128;24.750;2022-09-16T04:24:42;26.92;;;5.93;;
32874;SDS011;40468;42.128;24.750;2022-09-16T04:27:46;33.53;;;6.72;;
32874;SDS011;40468;42.128;24.750;2022-09-16T04:29:17;34.08;;;6.32;;
32874;SDS011;40468;42.128;24.750;2022-09-16T04:30:49;20.90;;;5.68;;
32874;SDS011;40468;42.128;24.750;2022-09-16T04:32:22;25.50;;;5.30;;
32874;SDS011;40468;42.128;24.750;2022-09-16T04:33:54;24.15;;;5.85;;
32874;SDS011;40468;42.128;24.750;2022-09-16T04:35:25;20.63;;;5.82;;
32874;SDS011;40468;42.128;24.750;2022-09-16T04:36:57;40.45;;;6.78;;
32874;SDS011;40468;42.128;24.750;2022-09-16T04:38:28;32.35;;;6.70;;
32874;SDS011;40468;42.128;24.750;2022-09-16T04:40:01;27.02;;;5.88;;
32874;SDS011;40468;42.128;24.750;2022-09-16T04:41:34;24.70;;;5.55;;
32874;SDS011;40468;42.128;24.750;2022-09-16T04:43:06;26.73;;;5.78;;
32874;SDS011;40468;42.128;24.750;2022-09-16T04:44:39;23.27;;;6.00;;
32874;SDS011;40468;42.128;24.750;2022-09-16T04:46:11;36.20;;;6.32;;
32874;SDS011;40468;42.128;24.750;2022-09-16T04:47:44;23.95;;;5.40;;
32874;SDS011;40468;42.128;24.750;2022-09-16T04:49:16;27.92;;;5.78;;
32874;SDS011;40468;42.128;24.750;2022-09-16T04:50:47;26.33;;;5.75;;
32874;SDS011;40468;42.128;24.750;2022-09-16T04:52:19;32.25;;;6.40;;
32874;SDS011;40468;42.128;24.750;2022-09-16T04:53:50;35.38;;;6.38;;
32874;SDS011;40468;42.128;24.750;2022-09-16T04:55:23;17.88;;;5.88;;
32874;SDS011;40468;42.128;24.750;2022-09-16T04:56:55;41.78;;;6.53;;
32874;SDS011;40468;42.128;24.750;2022-09-16T04:58:28;29.92;;;6.60;;
32874;SDS011;40468;42.128;24.750;2022-09-16T04:59:59;27.33;;;6.10;;
32874;SDS011;40468;42.128;24.750;2022-09-16T05:01:32;36.05;;;6.15;;
32874;SDS011;40468;42.128;24.750;2022-09-16T05:03:04;24.33;;;5.82;;
32874;SDS011;40468;42.128;24.750;2022-09-16T05:04:37;22.27;;;7.00;;
32874;SDS011;40468;42.128;24.750;2022-09-16T05:06:10;22.27;;;6.00;;
32874;SDS011;40468;42.128;24.750;2022-09-16T05:07:42;35.22;;;6.68;;
32874;SDS011;40468;42.128;24.750;2022-09-16T05:09:14;28.65;;;6.57;;
32874;SDS011;40468;42.128;24.750;2022-09-16T05:10:48;28.67;;;5.35;;
32874;SDS011;40468;42.128;24.750;2022-09-16T05:12:19;31.02;;;6.13;;
32874;SDS011;40468;42.128;24.750;2022-09-16T05:13:51;26.63;;;6.57;;
32874;SDS011;40468;42.128;24.750;2022-09-16T05:15:24;17.67;;;5.78;;
32874;SDS011;40468;42.128;24.750;2022-09-16T05:16:56;19.75;;;5.00;;
32874;SDS011;40468;42.128;24.750;2022-09-16T05:18:28;19.55;;;4.85;;
32874;SDS011;40468;42.128;24.750;2022-09-16T05:20:01;23.35;;;4.38;;
32874;SDS011;40468;42.128;24.750;2022-09-16T05:21:34;13.38;;;4.38;;
32874;SDS011;40468;42.128;24.750;2022-09-16T05:23:07;18.80;;;3.95;;
32874;SDS011;40468;42.128;24.750;2022-09-16T05:24:39;20.80;;;5.40;;
32874;SDS011;40468;42.128;24.750;2022-09-16T05:26:16;14.38;;;3.65;;
32874;SDS011;40468;42.128;24.750;2022-09-16T05:27:49;23.77;;;4.35;;
32874;SDS011;40468;42.128;24.750;2022-09-16T05:29:21;14.70;;;4.10;;
32874;SDS011;40468;42.128;24.750;2022-09-16T05:30:52;18.35;;;4.53;;
32874;SDS011;40468;42.128;24.750;2022-09-16T05:32:24;17.13;;;4.38;;
32874;SDS011;40468;42.128;24.750;2022-09-16T05:33:57;31.00;;;4.90;;
32874;SDS011;40468;42.128;24.750;2022-09-16T05:35:30;18.15;;;4.38;;
32874;SDS011;40468;42.128;24.750;2022-09-16T05:37:02;23.73;;;4.60;;
32874;SDS011;40468;42.128;24.750;2022-09-16T05:38:34;24.20;;;5.43;;
32874;SDS011;40468;42.128;24.750;2022-09-16T05:40:06;16.25;;;3.78;;
32874;SDS011;40468;42.128;24.750;2022-09-16T05:41:39;29.00;;;8.20;;
32874;SDS011;40468;42.128;24.750;2022-09-16T05:44:43;23.27;;;7.50;;
32874;SDS011;40468;42.128;24.750;2022-09-16T05:46:16;26.70;;;5.13;;
32874;SDS011;40468;42.128;24.750;2022-09-16T05:47:49;20.50;;;4.22;;
32874;SDS011;40468;42.128;24.750;2022-09-16T05:49:21;16.17;;;4.30;;
32874;SDS011;40468;42.128;24.750;2022-09-16T05:50:54;30.52;;;5.82;;
32874;SDS011;40468;42.128;24.750;2022-09-16T05:52:27;19.05;;;4.53;;
32874;SDS011;40468;42.128;24.750;2022-09-16T05:53:59;21.98;;;4.40;;
32874;SDS011;40468;42.128;24.750;2022-09-16T05:55:31;24.27;;;4.43;;
32874;SDS011;40468;42.128;24.750;2022-09-16T05:57:04;15.48;;;4.05;;
32874;SDS011;40468;42.128;24.750;2022-09-16T05:58:36;24.95;;;4.75;;
32874;SDS011;40468;42.128;24.750;2022-09-16T06:00:09;21.73;;;5.15;;
32874;SDS011;40468;42.128;24.750;2022-09-16T06:01:42;17.35;;;4.22;;
32874;SDS011;40468;42.128;24.750;2022-09-16T06:03:14;19.60;;;5.05;;
32874;SDS011;40468;42.128;24.750;2022-09-16T06:04:46;35.60;;;5.72;;
32874;SDS011;40468;42.128;24.750;2022-09-16T06:06:20;22.85;;;5.30;;
32874;SDS011;40468;42.128;24.750;2022-09-16T06:07:55;35.95;;;5.95;;
32874;SDS011;40468;42.128;24.750;2022-09-16T06:09:28;29.95;;;6.63;;
32874;SDS011;40468;42.128;24.750;2022-09-16T06:11:00;30.88;;;5.40;;
32874;SDS011;40468;42.128;24.750;2022-09-16T06:12:34;23.77;;;6.17;;
32874;SDS011;40468;42.128;24.750;2022-09-16T06:15:37;35.70;;;5.45;;
32874;SDS011;40468;42.128;24.750;2022-09-16T06:17:18;31.58;;;6.55;;
32874;SDS011;40468;42.128;24.750;2022-09-16T06:18:50;30.65;;;6.38;;
32874;SDS011;40468;42.128;24.750;2022-09-16T06:20:22;29.60;;;9.35;;
32874;SDS011;40468;42.128;24.750;2022-09-16T06:21:54;36.85;;;8.40;;
32874;SDS011;40468;42.128;24.750;2022-09-16T06:23:26;18.35;;;6.95;;
32874;SDS011;40468;42.128;24.750;2022-09-16T06:24:57;21.95;;;5.43;;
32874;SDS011;40468;42.128;24.750;2022-09-16T06:26:29;27.67;;;5.85;;
32874;SDS011;40468;42.128;24.750;2022-09-16T06:28:02;36.50;;;6.40;;
32874;SDS011;40468;42.128;24.750;2022-09-16T06:29:34;34.75;;;5.97;;
32874;SDS011;40468;42.128;24.750;2022-09-16T06:31:07;19.17;;;5.63;;
32874;SDS011;40468;42.128;24.750;2022-09-16T06:32:41;36.67;;;6.28;;
32874;SDS011;40468;42.128;24.750;2022-09-16T06:34:13;32.50;;;6.20;;
32874;SDS011;40468;42.128;24.750;2022-09-16T06:35:47;22.05;;;6.45;;
32874;SDS011;40468;42.128;24.750;2022-09-16T06:37:20;34.78;;;5.53;;
32874;SDS011;40468;42.128;24.750;2022-09-16T06:38:52;30.20;;;6.15;;
32874;SDS011;40468;42.128;24.750;2022-09-16T06:40:24;20.67;;;5.60;;
32874;SDS011;40468;42.128;24.750;2022-09-16T06:41:56;28.42;;;7.60;;
32874;SDS011;40468;42.128;24.750;2022-09-16T06:43:29;34.47;;;7.25;;
32874;SDS011;40468;42.128;24.750;2022-09-16T06:45:01;20.85;;;5.28;;
32874;SDS011;40468;42.128;24.750;2022-09-16T06:46:33;22.73;;;5.28;;
32874;SDS011;40468;42.128;24.750;2022-09-16T06:48:05;21.70;;;5.28;;
32874;SDS011;40468;42.128;24.750;2022-09-16T06:49:37;34.67;;;6.07;;
32874;SDS011;40468;42.128;24.750;2022-09-16T06:51:10;20.42;;;4.65;;
32874;SDS011;40468;42.128;24.750;2022-09-16T06:52:43;19.17;;;4.50;;
32874;SDS011;40468;42.128;24.750;2022-09-16T06:54:15;17.08;;;4.22;;
32874;SDS011;40468;42.128;24.750;2022-09-16T06:55:47;26.00;;;4.88;;
32874;SDS011;40468;42.128;24.750;2022-09-16T06:57:20;23.08;;;5.95;;
32874;SDS011;40468;42.128;24.750;2022-09-16T06:58:54;28.92;;;5.63;;
32874;SDS011;40468;42.128;24.750;2022-09-16T07:00:27;29.92;;;5.40;;
32874;SDS011;40468;42.128;24.750;2022-09-16T07:02:00;25.75;;;5.05;;
32874;SDS011;40468;42.128;24.750;2022-09-16T07:03:32;26.42;;;6.00;;
32874;SDS011;40468;42.128;24.750;2022-09-16T07:05:04;35.35;;;5.28;;
32874;SDS011;40468;42.128;24.750;2022-09-16T07:06:36;27.85;;;7.30;;
32874;SDS011;40468;42.128;24.750;2022-09-16T07:08:08;40.35;;;5.88;;
32874;SDS011;40468;42.128;24.750;2022-09-16T07:09:40;26.23;;;5.30;;
32874;SDS011;40468;42.128;24.750;2022-09-16T07:11:13;26.13;;;5.35;;
32874;SDS011;40468;42.128;24.750;2022-09-16T07:12:46;22.00;;;4.82;;
32874;SDS011;40468;42.128;24.750;2022-09-16T07:14:19;32.05;;;5.50;;
32874;SDS011;40468;42.128;24.750;2022-09-16T07:15:51;20.85;;;4.43;;
32874;SDS011;40468;42.128;24.750;2022-09-16T07:17:23;28.67;;;4.10;;
32874;SDS011;40468;42.128;24.750;2022-09-16T07:18:57;24.33;;;4.18;;
32874;SDS011;40468;42.128;24.750;2022-09-16T07:20:29;12.75;;;4.05;;
32874;SDS011;40468;42.128;24.750;2022-09-16T07:22:01;14.23;;;3.65;;
32874;SDS011;40468;42.128;24.750;2022-09-16T07:23:34;40.10;;;4.63;;
32874;SDS011;40468;42.128;24.750;2022-09-16T07:25:07;18.80;;;4.43;;
32874;SDS011;40468;42.128;24.750;2022-09-16T07:26:39;19.75;;;4.38;;
32874;SDS011;40468;42.128;24.750;2022-09-16T07:29:45;18.35;;;3.90;;
32874;SDS011;40468;42.128;24.750;2022-09-16T07:32:50;21.48;;;3.88;;
32874;SDS011;40468;42.128;24.750;2022-09-16T07:34:22;39.17;;;4.45;;
32874;SDS011;40468;42.128;24.750;2022-09-16T07:35:56;15.57;;;3.83;;
32874;SDS011;40468;42.128;24.750;2022-09-16T07:37:29;23.45;;;4.00;;
32874;SDS011;40468;42.128;24.750;2022-09-16T07:39:01;21.77;;;4.20;;
32874;SDS011;40468;42.128;24.750;2022-09-16T07:40:33;19.77;;;4.57;;
32874;SDS011;40468;42.128;24.750;2022-09-16T07:42:05;19.63;;;4.55;;
32874;SDS011;40468;42.128;24.750;2022-09-16T07:43:37;21.38;;;3.78;;
32874;SDS011;40468;42.128;24.750;2022-09-16T07:45:11;16.83;;;3.75;;
32874;SDS011;40468;42.128;24.750;2022-09-16T07:46:43;16.48;;;4.25;;
32874;SDS011;40468;42.128;24.750;2022-09-16T07:48:15;21.58;;;4.45;;
32874;SDS011;40468;42.128;24.750;2022-09-16T07:49:46;13.85;;;3.47;;
32874;SDS011;40468;42.128;24.750;2022-09-16T07:51:21;21.13;;;4.28;;
32874;SDS011;40468;42.128;24.750;2022-09-16T07:52:54;19.88;;;4.47;;
32874;SDS011;40468;42.128;24.750;2022-09-16T07:54:26;18.48;;;4.57;;
32874;SDS011;40468;42.128;24.750;2022-09-16T07:56:00;20.15;;;4.10;;
32874;SDS011;40468;42.128;24.750;2022-09-16T07:57:33;15.65;;;3.70;;
32874;SDS011;40468;42.128;24.750;2022-09-16T07:59:05;21.38;;;3.47;;
32874;SDS011;40468;42.128;24.750;2022-09-16T08:00:41;22.42;;;3.58;;
32874;SDS011;40468;42.128;24.750;2022-09-16T08:02:13;28.02;;;4.30;;
32874;SDS011;40468;42.128;24.750;2022-09-16T08:03:45;24.10;;;4.15;;
32874;SDS011;40468;42.128;24.750;2022-09-16T08:05:18;19.85;;;3.75;;
32874;SDS011;40468;42.128;24.750;2022-09-16T08:06:50;17.60;;;3.67;;
32874;SDS011;40468;42.128;24.750;2022-09-16T08:08:22;21.85;;;4.68;;
32874;SDS011;40468;42.128;24.750;2022-09-16T08:09:54;15.48;;;3.28;;
32874;SDS011;40468;42.128;24.750;2022-09-16T08:12:59;24.52;;;4.45;;
32874;SDS011;40468;42.128;24.750;2022-09-16T08:14:31;22.77;;;4.30;;
32874;SDS011;40468;42.128;24.750;2022-09-16T08:16:05;18.05;;;3.92;;
32874;SDS011;40468;42.128;24.750;2022-09-16T08:17:38;26.95;;;3.97;;
32874;SDS011;40468;42.128;24.750;2022-09-16T08:19:10;19.52;;;3.72;;
32874;SDS011;40468;42.128;24.750;2022-09-16T08:20:42;17.83;;;4.40;;
32874;SDS011;40468;42.128;24.750;2022-09-16T08:22:14;24.08;;;4.47;;
32874;SDS011;40468;42.128;24.750;2022-09-16T08:23:46;18.85;;;4.10;;
32874;SDS011;40468;42.128;24.750;2022-09-16T08:25:18;14.90;;;3.63;;
32874;SDS011;40468;42.128;24.750;2022-09-16T08:26:50;33.03;;;4.32;;
32874;SDS011;40468;42.128;24.750;2022-09-16T08:28:22;19.40;;;3.75;;
32874;SDS011;40468;42.128;24.750;2022-09-16T08:29:54;9.40;;;3.72;;
32874;SDS011;40468;42.128;24.750;2022-09-16T08:31:28;13.07;;;2.97;;
32874;SDS011;40468;42.128;24.750;2022-09-16T08:33:00;21.92;;;3.47;;
32874;SDS011;40468;42.128;24.750;2022-09-16T08:34:31;15.95;;;3.70;;
32874;SDS011;40468;42.128;24.750;2022-09-16T08:36:04;19.70;;;3.72;;
32874;SDS011;40468;42.128;24.750;2022-09-16T08:37:37;16.60;;;3.63;;
32874;SDS011;40468;42.128;24.750;2022-09-16T08:39:09;21.40;;;4.15;;
32874;SDS011;40468;42.128;24.750;2022-09-16T08:40:42;18.55;;;4.40;;
32874;SDS011;40468;42.128;24.750;2022-09-16T08:42:22;17.40;;;4.45;;
32874;SDS011;40468;42.128;24.750;2022-09-16T08:44:10;18.02;;;4.40;;
32874;SDS011;40468;42.128;24.750;2022-09-16T08:45:48;16.00;;;3.63;;
32874;SDS011;40468;42.128;24.750;2022-09-16T08:47:30;22.35;;;3.80;;
32874;SDS011;40468;42.128;24.750;2022-09-16T08:49:15;16.48;;;3.50;;
32874;SDS011;40468;42.128;24.750;2022-09-16T08:50:51;18.40;;;2.92;;
32874;SDS011;40468;42.128;24.750;2022-09-16T08:52:27;15.05;;;4.45;;
32874;SDS011;40468;42.128;24.750;2022-09-16T08:54:02;12.93;;;3.88;;
32874;SDS011;40468;42.128;24.750;2022-09-16T08:55:37;20.70;;;4.93;;
32874;SDS011;40468;42.128;24.750;2022-09-16T08:57:16;26.15;;;3.83;;
32874;SDS011;40468;42.128;24.750;2022-09-16T08:58:53;24.48;;;3.53;;
32874;SDS011;40468;42.128;24.750;2022-09-16T09:00:27;25.00;;;4.20;;
32874;SDS011;40468;42.128;24.750;2022-09-16T09:02:01;17.17;;;3.67;;
32874;SDS011;40468;42.128;24.750;2022-09-16T09:03:50;25.92;;;4.18;;
32874;SDS011;40468;42.128;24.750;2022-09-16T09:05:25;24.02;;;4.80;;
32874;SDS011;40468;42.128;24.750;2022-09-16T09:07:16;20.70;;;3.67;;
32874;SDS011;40468;42.128;24.750;2022-09-16T09:08:55;21.13;;;4.28;;
32874;SDS011;40468;42.128;24.750;2022-09-16T09:10:39;23.02;;;4.45;;
32874;SDS011;40468;42.128;24.750;2022-09-16T09:12:18;21.95;;;4.10;;
32874;SDS011;40468;42.128;24.750;2022-09-16T09:14:01;18.90;;;5.15;;
32874;SDS011;40468;42.128;24.750;2022-09-16T09:15:47;18.60;;;5.55;;
32874;SDS011;40468;42.128;24.750;2022-09-16T09:17:28;28.48;;;5.38;;
32874;SDS011;40468;42.128;24.750;2022-09-16T09:19:12;18.75;;;3.90;;
32874;SDS011;40468;42.128;24.750;2022-09-16T09:20:55;12.15;;;3.40;;
32874;SDS011;40468;42.128;24.750;2022-09-16T09:22:39;19.88;;;4.75;;
32874;SDS011;40468;42.128;24.750;2022-09-16T09:24:31;16.60;;;3.67;;
32874;SDS011;40468;42.128;24.750;2022-09-16T09:26:19;23.00;;;4.57;;
32874;SDS011;40468;42.128;24.750;2022-09-16T09:27:54;13.02;;;3.45;;
32874;SDS011;40468;42.128;24.750;2022-09-16T09:29:40;22.00;;;4.15;;
32874;SDS011;40468;42.128;24.750;2022-09-16T09:31:34;22.70;;;4.38;;
32874;SDS011;40468;42.128;24.750;2022-09-16T09:33:17;21.80;;;3.35;;